Time;durP1;ratioP1;P1;durP2;ratioP2;P2;SDS_P1;SDS_P2;PMS_P1;PMS_P2;Temp;Humidity;BMP_temperature;BMP_pressure;BME280_temperature;BME280_humidity;BME280_pressure;Samples;Min_cycle;Max_cycle;Signal;HPM_P1;HPM_P2
2024/01/09 00:01:44;;;;;;;3.80;2.40;;;10.80;95.70;;;;;;5049127;28;20044;-68
2024/01/09 00:04:48;;;;;;;3.30;2.20;;;13.70;96.50;;;;;;5049156;28;20508;-68
2024/01/09 00:07:52;;;;;;;3.90;2.50;;;11.00;94.80;;;;;;5048991;28;20056;-68
2024/01/09 00:10:59;;;;;;;3.25;2.42;;;10.80;95.70;;;;;;5048953;28;20114;-68
2024/01/09 00:14:03;;;;;;;4.78;2.08;;;10.80;95.70;;;;;;5048732;28;20040;-69
2024/01/09 00:17:07;;;;;;;5.80;2.78;;;11.30;94.80;;;;;;5048834;28;20072;-69
2024/01/09 00:20:12;;;;;;;5.93;2.50;;;11.50;94.80;;;;;;5048709;28;20036;-67
2024/01/09 00:23:16;;;;;;;6.88;2.58;;;10.90;95.80;;;;;;5096376;27;20048;-68
2024/01/09 00:26:21;;;;;;;4.40;2.40;;;10.80;96.00;;;;;;5048863;28;20427;-68
2024/01/09 00:29:25;;;;;;;5.43;2.50;;;10.60;96.00;;;;;;5096822;27;20048;-69
2024/01/09 00:32:29;;;;;;;5.30;1.90;;;11.20;95.10;;;;;;5048865;28;20068;-69
2024/01/09 00:35:34;;;;;;;4.55;2.40;;;10.70;95.30;;;;;;5049070;28;20052;-68
2024/01/09 00:38:38;;;;;;;5.57;2.47;;;11.20;94.40;;;;;;5048956;28;20040;-68
2024/01/09 00:41:42;;;;;;;3.95;2.58;;;10.70;95.80;;;;;;5048854;28;20040;-68
2024/01/09 00:44:46;;;;;;;5.55;2.70;;;10.90;96.00;;;;;;5048529;28;20048;-67
2024/01/09 00:47:50;;;;;;;3.42;2.25;;;10.50;95.80;;;;;;5048740;28;20052;-69
2024/01/09 00:50:54;;;;;;;3.60;2.03;;;11.00;95.30;;;;;;5048400;28;20052;-68
2024/01/09 00:53:58;;;;;;;3.38;2.47;;;11.30;94.70;;;;;;5048501;28;20040;-67
2024/01/09 00:57:02;;;;;;;5.32;2.50;;;10.70;95.70;;;;;;5048496;28;20052;-68
2024/01/09 01:00:06;;;;;;;5.70;2.53;;;11.50;95.10;;;;;;5048266;28;20040;-67
2024/01/09 01:03:10;;;;;;;5.07;2.45;;;10.90;95.60;;;;;;5048407;28;20043;-67
2024/01/09 01:06:14;;;;;;;3.05;2.22;;;10.70;95.70;;;;;;5048415;28;20041;-69
2024/01/09 01:09:18;;;;;;;4.72;2.03;;;10.70;95.00;;;;;;5048145;28;20047;-69
2024/01/09 01:12:23;;;;;;;4.30;2.45;;;10.80;95.80;;;;;;5047912;28;20052;-68
2024/01/09 01:15:27;;;;;;;5.32;2.90;;;11.30;95.10;;;;;;5048242;28;20040;-68
2024/01/09 01:18:32;;;;;;;5.55;2.50;;;11.10;95.10;;;;;;5047839;28;20067;-69
2024/01/09 01:21:36;;;;;;;7.18;2.35;;;10.80;95.90;;;;;;5095580;27;20036;-68
2024/01/09 01:24:40;;;;;;;4.53;2.67;;;11.10;95.10;;;;;;5048354;28;20044;-68
2024/01/09 01:27:43;;;;;;;5.82;2.28;;;11.10;95.00;;;;;;5047990;28;20040;-68
2024/01/09 01:30:48;;;;;;;4.00;2.40;;;;;;;;;;5054081;28;20044;-68
2024/01/09 01:33:53;;;;;;;6.25;2.38;;;;;;;;;;5054562;28;20480;-68
2024/01/09 01:36:57;;;;;;;5.75;3.08;;;11.00;95.60;;;;;;5054824;28;20040;-68
2024/01/09 01:40:02;;;;;;;3.90;2.58;;;9.90;95.10;;;;;;5054741;28;20052;-69
2024/01/09 01:43:05;;;;;;;6.15;2.85;;;10.10;95.30;;;;;;5054284;28;20519;-69
2024/01/09 01:46:10;;;;;;;3.38;2.17;;;11.20;95.00;;;;;;5054617;28;20044;-69
2024/01/09 01:49:17;;;;;;;3.53;2.40;;;11.20;95.10;;;;;;5054519;28;20047;-69
2024/01/09 01:52:21;;;;;;;3.63;2.15;;;10.80;95.40;;;;;;5054073;28;20049;-68
2024/01/09 01:55:27;;;;;;;4.13;2.22;;;11.10;94.70;;;;;;5054382;28;20044;-68
2024/01/09 01:58:32;;;;;;;4.53;2.50;;;10.60;95.30;;;;;;5054476;28;20122;-69
2024/01/09 02:01:37;;;;;;;5.43;2.22;;;11.20;94.80;;;;;;5102233;27;20526;-68
2024/01/09 02:04:43;;;;;;;2.55;2.20;;;11.20;94.30;;;;;;5054294;28;20048;-68
2024/01/09 02:07:50;;;;;;;3.67;2.20;;;9.80;94.40;;;;;;5054426;28;20044;-67
2024/01/09 02:10:54;;;;;;;5.70;2.70;;;11.20;94.80;;;;;;5053834;28;20049;-67
2024/01/09 02:13:58;;;;;;;6.70;3.25;;;;;;;;;;5054003;28;20036;-68
2024/01/09 02:17:03;;;;;;;4.97;2.65;;;11.00;94.30;;;;;;5053647;28;20792;-68
2024/01/09 02:20:08;;;;;;;5.85;2.53;;;10.90;95.10;;;;;;5053800;28;20048;-69
2024/01/09 02:23:12;;;;;;;4.50;2.50;;;10.90;95.00;;;;;;5053853;28;20044;-68
2024/01/09 02:26:27;;;;;;;5.57;3.03;;;10.90;95.00;;;;;;5101673;27;20040;-68
2024/01/09 02:29:34;;;;;;;5.35;3.08;;;10.00;94.00;;;;;;5053627;28;20044;-68
2024/01/09 02:32:38;;;;;;;4.35;2.55;;;11.40;93.90;;;;;;5053889;28;20048;-68
2024/01/09 02:35:42;;;;;;;7.47;2.90;;;11.20;93.90;;;;;;5053859;28;20043;-68
2024/01/09 02:38:46;;;;;;;5.20;2.83;;;11.10;94.60;;;;;;5054539;28;20055;-68
2024/01/09 02:41:51;;;;;;;5.97;2.95;;;11.20;94.00;;;;;;5049907;28;20400;-69
2024/01/09 02:44:55;;;;;;;6.00;2.83;;;10.90;94.90;;;;;;5050646;28;20059;-68
2024/01/09 02:47:59;;;;;;;7.55;3.50;;;10.90;95.00;;;;;;5050437;28;20044;-68
2024/01/09 02:51:04;;;;;;;5.93;3.13;;;11.20;94.30;;;;;;5050421;28;20052;-68
2024/01/09 02:54:08;;;;;;;7.93;3.15;;;11.20;94.20;;;;;;5050618;28;20040;-68
2024/01/09 02:57:12;;;;;;;6.43;2.85;;;10.60;95.20;;;;;;5050444;28;20043;-68
2024/01/09 03:00:18;;;;;;;8.45;3.25;;;13.20;96.00;;;;;;5098255;27;20060;-69
2024/01/09 03:03:21;;;;;;;5.85;2.78;;;13.10;96.20;;;;;;5050064;28;20044;-69
2024/01/09 03:06:25;;;;;;;6.47;3.00;;;11.30;94.60;;;;;;5049938;28;20055;-68
2024/01/09 03:09:29;;;;;;;5.70;3.30;;;10.90;94.40;;;;;;5097720;27;20495;-68
2024/01/09 03:12:33;;;;;;;5.13;3.13;;;11.00;94.50;;;;;;5050044;28;20048;-67
2024/01/09 03:15:37;;;;;;;8.73;3.22;;;10.30;95.40;;;;;;5049910;28;20048;-67
2024/01/09 03:18:42;;;;;;;5.10;3.00;;;10.60;95.20;;;;;;5049672;28;20056;-67
2024/01/09 03:21:48;;;;;;;6.45;3.28;;;10.90;94.50;;;;;;5049901;28;20649;-68
2024/01/09 03:24:52;;;;;;;4.30;3.15;;;10.80;95.30;;;;;;5049814;28;20060;-68
2024/01/09 03:27:56;;;;;;;6.03;2.97;;;10.00;94.90;;;;;;5049754;28;20044;-67
2024/01/09 03:31:00;;;;;;;4.68;3.20;;;10.90;94.50;;;;;;5049517;28;20068;-69
2024/01/09 03:34:04;;;;;;;5.35;2.92;;;9.60;94.30;;;;;;5049820;28;20044;-67
2024/01/09 03:37:09;;;;;;;6.22;3.08;;;;;;;;;;5049817;28;20041;-68
2024/01/09 03:40:14;;;;;;;4.78;3.10;;;;;;;;;;5049587;28;20033;-68
2024/01/09 03:43:18;;;;;;;8.20;3.20;;;9.90;94.80;;;;;;5097404;27;20044;-68
2024/01/09 03:46:22;;;;;;;5.85;4.05;;;10.90;94.40;;;;;;5049777;28;20393;-68
2024/01/09 03:49:25;;;;;;;7.72;3.20;;;10.40;95.50;;;;;;5049636;28;20380;-67
2024/01/09 03:52:29;;;;;;;6.00;3.10;;;10.40;95.50;;;;;;5085109;28;20056;-67
2024/01/09 03:55:33;;;;;;;5.78;3.33;;;10.80;94.80;;;;;;5049306;28;20040;-68
2024/01/09 03:58:37;;;;;;;11.27;4.20;;;10.90;94.70;;;;;;5049398;28;20048;-68
2024/01/09 04:01:41;;;;;;;10.00;5.90;;;10.90;94.90;;;;;;5049394;28;20499;-68
2024/01/09 04:04:45;;;;;;;8.88;4.60;;;10.20;95.70;;;;;;5048957;28;20044;-68
2024/01/09 04:07:49;;;;;;;7.55;3.70;;;11.00;95.10;;;;;;5049175;28;20048;-68
2024/01/09 04:10:53;;;;;;;5.05;3.22;;;10.30;95.70;;;;;;5048841;28;20056;-67
2024/01/09 04:13:56;;;;;;;7.38;3.53;;;10.80;94.90;;;;;;5048900;28;20040;-68
2024/01/09 04:17:00;;;;;;;6.35;4.07;;;10.50;95.50;;;;;;5048799;28;20047;-68
2024/01/09 04:20:05;;;;;;;7.45;3.83;;;10.60;95.80;;;;;;5048885;28;20495;-68
2024/01/09 04:23:09;;;;;;;5.72;4.10;;;10.40;95.80;;;;;;5096163;27;20052;-67
2024/01/09 04:26:13;;;;;;;12.02;4.38;;;10.10;95.80;;;;;;5048819;28;20059;-68
2024/01/09 04:29:16;;;;;;;11.60;6.00;;;10.80;95.00;;;;;;5048616;28;20044;-68
2024/01/09 04:32:20;;;;;;;5.85;3.83;;;10.30;95.90;;;;;;5096234;27;20052;-68
2024/01/09 04:35:24;;;;;;;6.03;3.33;;;13.10;96.70;;;;;;5048490;28;20040;-68
2024/01/09 04:38:28;;;;;;;8.02;3.78;;;10.50;94.90;;;;;;5048750;28;20044;-68
2024/01/09 04:41:32;;;;;;;11.93;7.70;;;10.80;95.20;;;;;;5048686;28;20047;-68
2024/01/09 04:44:36;;;;;;;12.77;7.28;;;10.70;95.10;;;;;;5048681;28;20044;-68
2024/01/09 04:47:40;;;;;;;5.55;3.85;;;11.10;96.20;;;;;;5048714;28;20405;-68
2024/01/09 04:50:44;;;;;;;7.35;5.13;;;10.70;95.20;;;;;;5048618;28;20125;-68
2024/01/09 04:53:48;;;;;;;7.97;4.07;;;10.70;95.20;;;;;;5048239;28;20388;-67
2024/01/09 04:56:51;;;;;;;8.63;4.00;;;10.10;96.10;;;;;;5048447;28;20044;-68
2024/01/09 04:59:55;;;;;;;7.35;3.88;;;10.30;96.10;;;;;;5048616;28;20056;-68
2024/01/09 05:02:59;;;;;;;7.15;3.17;;;10.70;94.90;;;;;;5048506;28;20405;-67
2024/01/09 05:06:03;;;;;;;10.25;3.70;;;13.10;96.70;;;;;;5048241;28;20070;-68
2024/01/09 05:09:08;;;;;;;11.13;3.65;;;;;;;;;;5048384;28;20044;-68
2024/01/09 05:12:12;;;;;;;7.28;3.35;;;11.10;96.70;;;;;;5047876;28;20056;-67
2024/01/09 05:15:16;;;;;;;4.68;3.42;;;12.80;97.00;;;;;;5048334;28;20498;-68
2024/01/09 05:18:19;;;;;;;5.38;3.72;;;11.50;96.30;;;;;;5047822;28;20519;-68
2024/01/09 05:21:23;;;;;;;5.25;4.05;;;11.30;96.80;;;;;;5047830;28;20051;-68
2024/01/09 05:24:27;;;;;;;10.57;3.85;;;12.70;96.40;;;;;;5095638;27;20048;-68
2024/01/09 05:27:31;;;;;;;9.02;3.92;;;11.10;96.60;;;;;;5047732;28;20044;-68
2024/01/09 05:30:36;;;;;;;4.75;3.33;;;10.50;95.60;;;;;;5047622;28;20056;-68
2024/01/09 05:33:40;;;;;;;7.18;3.95;;;10.50;95.50;;;;;;5048046;28;20036;-67
2024/01/09 05:36:44;;;;;;;7.47;3.55;;;10.00;96.50;;;;;;5047759;28;20065;-68
2024/01/09 05:39:48;;;;;;;9.63;4.00;;;10.10;96.40;;;;;;5048054;28;20039;-68
2024/01/09 05:42:52;;;;;;;6.25;3.58;;;10.00;96.40;;;;;;5047787;28;20598;-68
2024/01/09 05:45:56;;;;;;;10.10;4.03;;;10.70;95.70;;;;;;5047691;28;20511;-68
2024/01/09 05:49:00;;;;;;;10.95;3.95;;;10.00;96.40;;;;;;5047938;28;20051;-68
2024/01/09 05:52:04;;;;;;;10.05;3.85;;;10.00;96.50;;;;;;5047512;28;20055;-68
2024/01/09 05:55:08;;;;;;;9.43;3.53;;;10.50;95.70;;;;;;5047608;28;20048;-68
2024/01/09 05:58:12;;;;;;;6.90;4.10;;;10.40;95.80;;;;;;5047844;28;20048;-68
2024/01/09 06:01:16;;;;;;;7.30;4.55;;;10.10;96.60;;;;;;5047472;28;20048;-68
2024/01/09 06:04:20;;;;;;;11.35;4.32;;;10.40;95.90;;;;;;5095210;28;20052;-68
2024/01/09 06:07:24;;;;;;;7.68;3.72;;;9.80;96.30;;;;;;5047721;28;20048;-67
2024/01/09 06:10:28;;;;;;;9.50;4.03;;;10.30;95.30;;;;;;5047270;28;20045;-68
2024/01/09 06:13:32;;;;;;;6.25;4.25;;;9.90;96.40;;;;;;5047606;28;20044;-69
2024/01/09 06:16:36;;;;;;;8.88;4.75;;;9.90;96.60;;;;;;5050178;28;20496;-69
2024/01/09 06:19:40;;;;;;;7.28;4.25;;;13.00;97.00;;;;;;5051083;28;20060;-67
2024/01/09 06:22:44;;;;;;;6.78;4.05;;;10.00;96.40;;;;;;5050609;28;20040;-67
2024/01/09 06:25:48;;;;;;;10.23;4.93;;;10.00;96.40;;;;;;5050665;28;20052;-67
2024/01/09 06:28:51;;;;;;;8.60;4.53;;;9.80;96.00;;;;;;5050841;28;20401;-68
2024/01/09 06:31:55;;;;;;;10.13;5.00;;;9.80;96.30;;;;;;5050391;28;20061;-68
2024/01/09 06:34:59;;;;;;;10.38;5.53;;;10.30;95.70;;;;;;5098179;27;20051;-68
2024/01/09 06:38:03;;;;;;;12.68;7.90;;;9.90;97.20;;;;;;5050360;28;20044;-67
2024/01/09 06:41:08;;;;;;;16.05;8.90;;;9.90;97.20;;;;;;5050333;28;20044;-68
2024/01/09 06:44:12;;;;;;;20.25;10.07;;;9.90;97.30;;;;;;5050236;28;20044;-68
2024/01/09 06:47:16;;;;;;;26.60;10.35;;;10.10;96.60;;;;;;5050067;28;20040;-69
2024/01/09 06:50:20;;;;;;;23.63;10.70;;;9.80;97.50;;;;;;5097988;27;20060;-68
2024/01/09 06:53:24;;;;;;;19.88;9.82;;;9.70;97.30;;;;;;5050091;28;20048;-67
2024/01/09 06:56:28;;;;;;;20.13;7.63;;;10.10;96.60;;;;;;5050240;28;20385;-68
2024/01/09 06:59:32;;;;;;;14.05;5.90;;;9.60;97.40;;;;;;5050368;28;20048;-68
2024/01/09 07:02:35;;;;;;;14.10;6.22;;;9.80;96.80;;;;;;5050076;28;20052;-69
2024/01/09 07:05:39;;;;;;;18.92;5.18;;;12.30;97.50;;;;;;5097860;27;20052;-68
2024/01/09 07:08:43;;;;;;;13.15;5.35;;;12.00;97.30;;;;;;5049822;28;20044;-69
2024/01/09 07:11:47;;;;;;;12.48;5.95;;;8.80;96.60;;;;;;5049626;28;20154;-66
2024/01/09 07:14:51;;;;;;;8.35;5.38;;;10.10;96.60;;;;;;5049976;28;20051;-69
2024/01/09 07:17:55;;;;;;;13.88;5.22;;;10.50;95.90;;;;;;5097188;27;20051;-70
2024/01/09 07:20:59;;;;;;;13.43;5.85;;;10.40;96.70;;;;;;5049828;28;20043;-69
2024/01/09 07:24:03;;;;;;;12.50;6.00;;;10.00;96.40;;;;;;5085298;28;20195;-68
2024/01/09 07:27:07;;;;;;;12.48;6.35;;;10.20;96.70;;;;;;5048968;28;20048;-67
2024/01/09 07:30:11;;;;;;;10.18;5.93;;;10.20;96.50;;;;;;5049398;28;20135;-69
2024/01/09 07:33:15;;;;;;;14.48;6.18;;;10.50;95.80;;;;;;5049773;28;20052;-68
2024/01/09 07:36:19;;;;;;;7.95;5.70;;;10.60;95.90;;;;;;5049515;28;20118;-68
2024/01/09 07:39:23;;;;;;;12.20;6.00;;;10.60;96.10;;;;;;5049580;28;20048;-69
2024/01/09 07:42:27;;;;;;;13.30;6.65;;;10.30;96.70;;;;;;5049188;28;20048;-67
2024/01/09 07:45:31;;;;;;;9.45;5.50;;;10.40;96.50;;;;;;5049392;28;20044;-68
2024/01/09 07:48:36;;;;;;;9.43;5.10;;;10.50;96.50;;;;;;5049196;28;20063;-70
2024/01/09 07:51:40;;;;;;;7.35;4.63;;;10.50;96.20;;;;;;5049092;28;20056;-68
2024/01/09 07:54:44;;;;;;;8.63;4.50;;;12.90;96.40;;;;;;5049119;28;20048;-70
2024/01/09 07:57:48;;;;;;;12.07;6.07;;;10.70;95.70;;;;;;5097162;27;20400;-70
2024/01/09 08:00:53;;;;;;;9.93;4.85;;;10.80;95.90;;;;;;5049144;28;20040;-71
2024/01/09 08:03:57;;;;;;;14.20;4.85;;;10.70;95.90;;;;;;5049527;28;20052;-70
2024/01/09 08:07:01;;;;;;;8.00;4.75;;;11.10;95.40;;;;;;5049398;28;20040;-71
2024/01/09 08:10:05;;;;;;;11.88;5.38;;;11.30;95.20;;;;;;5049206;28;20048;-68
2024/01/09 08:13:09;;;;;;;9.50;4.63;;;11.50;95.00;;;;;;5049117;28;20496;-69
2024/01/09 08:16:13;;;;;;;9.75;4.97;;;12.00;95.10;;;;;;5049167;28;20040;-69
2024/01/09 08:19:18;;;;;;;10.10;4.70;;;;;;;;;;5048925;28;20134;-65
2024/01/09 08:22:22;;;;;;;11.18;4.70;;;;;;;;;;5048547;28;20044;-68
2024/01/09 08:25:26;;;;;;;15.20;5.00;;;;;;;;;;5048873;28;20048;-70
2024/01/09 08:28:30;;;;;;;7.78;4.60;;;12.30;93.00;;;;;;5048839;28;20056;-70
2024/01/09 08:31:34;;;;;;;9.25;4.20;;;11.80;94.40;;;;;;5048461;28;20546;-68
2024/01/09 08:34:38;;;;;;;9.70;4.78;;;;;;;;;;5048782;28;20048;-68
2024/01/09 08:37:42;;;;;;;11.88;4.97;;;11.70;93.90;;;;;;5048588;28;20033;-69
2024/01/09 08:40:50;;;;;;;9.73;4.47;;;12.00;93.80;;;;;;5047894;28;20044;-69
2024/01/09 08:43:54;;;;;;;9.70;4.45;;;11.50;93.10;;;;;;5096288;27;20047;-69
2024/01/09 08:46:58;;;;;;;10.23;4.75;;;12.30;93.90;;;;;;5048407;28;20511;-67
2024/01/09 08:50:03;;;;;;;7.60;4.53;;;;;;;;;;5048363;28;20055;-69
2024/01/09 08:53:07;;;;;;;8.13;4.70;;;;;;;;;;5048136;28;20053;-68
2024/01/09 08:56:11;;;;;;;5.50;4.00;;;;;;;;;;5048319;28;20029;-68
2024/01/09 08:59:16;;;;;;;18.67;7.63;;;;;;;;;;5048361;28;20041;-68
2024/01/09 09:02:20;;;;;;;8.15;4.60;;;;;;;;;;5048243;28;20051;-66
2024/01/09 09:05:24;;;;;;;9.48;4.50;;;;;;;;;;5048267;28;20037;-71
2024/01/09 09:08:30;;;;;;;6.63;4.40;;;;;;;;;;5048549;28;20369;-67
2024/01/09 09:11:34;;;;;;;9.85;3.85;;;;;;;;;;5047710;28;20045;-72
2024/01/09 09:14:38;;;;;;;14.50;5.03;;;;;;;;;;5048259;28;20390;-68
2024/01/09 09:17:43;;;;;;;8.32;4.32;;;;;;;;;;5046730;28;20511;-69
2024/01/09 09:20:47;;;;;;;9.73;4.78;;;;;;;;;;5094511;27;20037;-68
2024/01/09 09:23:53;;;;;;;9.45;4.50;;;;;;;;;;5047606;28;20033;-68
2024/01/09 09:26:57;;;;;;;11.23;5.28;;;;;;;;;;5047745;28;20041;-67
2024/01/09 09:30:01;;;;;;;11.52;4.75;;;;;;;;;;5048000;28;20052;-69
2024/01/09 09:33:06;;;;;;;9.63;4.63;;;;;;;;;;5047651;28;20198;-69
2024/01/09 09:36:12;;;;;;;9.85;4.80;;;14.30;91.30;;;;;;5095388;28;20481;-68
2024/01/09 09:39:17;;;;;;;10.00;4.50;;;;;;;;;;5047432;28;20067;-69
2024/01/09 09:42:22;;;;;;;9.43;4.88;;;;;;;;;;5047900;28;20048;-69
2024/01/09 09:45:29;;;;;;;9.52;4.60;;;14.80;90.00;;;;;;5047579;28;20036;-68
2024/01/09 09:48:34;;;;;;;6.70;4.38;;;;;;;;;;5047479;28;20496;-68
2024/01/09 09:51:39;;;;;;;7.93;5.20;;;;;;;;;;5050334;28;20045;-69
2024/01/09 09:54:43;;;;;;;9.75;4.65;;;;;;;;;;5051137;28;20480;-69
2024/01/09 09:57:47;;;;;;;7.95;4.82;;;;;;;;;;5051010;28;20066;-70
2024/01/09 10:00:54;;;;;;;6.22;4.00;;;13.50;88.50;;;;;;5050765;28;20041;-68
2024/01/09 10:03:59;;;;;;;5.13;3.90;;;;;;;;;;5050968;28;20458;-68
2024/01/09 10:07:06;;;;;;;8.00;4.10;;;12.20;88.50;;;;;;5050604;28;20484;-69
2024/01/09 10:10:12;;;;;;;6.70;3.78;;;14.50;90.00;;;;;;5050598;28;20511;-68
2024/01/09 10:13:16;;;;;;;7.28;3.83;;;;;;;;;;5050542;28;20052;-68
2024/01/09 10:16:21;;;;;;;9.68;4.60;;;;;;;;;;5050503;28;20033;-68
2024/01/09 10:19:27;;;;;;;6.82;4.40;;;;;;;;;;5050980;28;20064;-68
2024/01/09 10:22:33;;;;;;;13.57;4.25;;;14.50;89.20;;;;;;5050519;28;20037;-68
2024/01/09 10:25:37;;;;;;;6.90;4.30;;;;;;;;;;5050539;28;20448;-67
2024/01/09 10:28:41;;;;;;;5.95;4.10;;;;;;;;;;5050392;28;20033;-75
2024/01/09 10:31:46;;;;;;;10.60;4.05;;;;;;;;;;5050386;28;20053;-68
2024/01/09 10:34:50;;;;;;;9.32;5.20;;;;;;;;;;5050350;28;20056;-69
2024/01/09 10:37:55;;;;;;;13.55;7.07;;;;;;;;;;5050493;28;20041;-68
2024/01/09 10:41:14;;;;;;;11.00;4.63;;;14.10;90.50;;;;;;5050036;28;20056;-68
2024/01/09 10:44:19;;;;;;;9.05;4.60;;;14.20;89.90;;;;;;5050225;28;20044;-69
2024/01/09 10:47:24;;;;;;;9.48;4.28;;;13.80;90.20;;;;;;5050121;28;20052;-68
2024/01/09 10:50:28;;;;;;;9.35;4.32;;;;;;;;;;5050022;28;20475;-66
2024/01/09 10:53:34;;;;;;;12.43;5.93;;;13.70;90.00;;;;;;5050246;28;20033;-66
2024/01/09 10:56:40;;;;;;;8.27;4.53;;;13.70;90.20;;;;;;5050043;28;20044;-66
2024/01/09 10:59:45;;;;;;;5.72;4.45;;;13.80;90.30;;;;;;5050047;28;20505;-67
2024/01/09 11:02:50;;;;;;;7.72;4.10;;;;;;;;;;5048873;28;20059;-68
2024/01/09 11:05:59;;;;;;;7.88;4.53;;;14.10;90.10;;;;;;5049758;28;20326;-67
2024/01/09 11:09:07;;;;;;;13.05;4.72;;;;;;;;;;5050017;28;20040;-67
2024/01/09 11:12:34;;;;;;;8.05;4.03;;;14.60;87.90;;;;;;5049520;28;20545;-67
2024/01/09 11:15:46;;;;;;;8.32;4.32;;;14.10;88.80;;;;;;5049689;28;20044;-67
2024/01/09 11:18:51;;;;;;;7.65;4.05;;;;;;;;;;5049411;28;20044;-67
2024/01/09 11:21:55;;;;;;;6.88;4.53;;;;;;;;;;5049607;28;20049;-68
2024/01/09 11:25:11;;;;;;;6.50;4.13;;;15.00;87.70;;;;;;5049678;28;20037;-67
2024/01/09 11:28:36;;;;;;;8.02;4.05;;;14.80;87.80;;;;;;5049448;28;20048;-67
2024/01/09 11:31:41;;;;;;;10.73;4.40;;;14.80;86.60;;;;;;5049405;28;20051;-68
2024/01/09 11:34:46;;;;;;;7.78;4.13;;;14.30;87.40;;;;;;5049611;28;20052;-67
2024/01/09 11:37:52;;;;;;;8.95;4.30;;;14.80;87.40;;;;;;5097259;27;20055;-68
2024/01/09 11:40:56;;;;;;;12.35;4.95;;;;;;;;;;5049426;28;20052;-68
2024/01/09 11:44:03;;;;;;;7.53;4.35;;;14.80;87.60;;;;;;5048971;28;20147;-68
2024/01/09 11:47:08;;;;;;;7.57;3.88;;;;;;;;;;5049550;28;20503;-67
2024/01/09 11:50:12;;;;;;;9.43;4.40;;;;;;;;;;5049663;28;20041;-69
2024/01/09 11:53:16;;;;;;;8.07;4.60;;;;;;;;;;5049581;28;20049;-68
2024/01/09 11:56:21;;;;;;;6.93;3.83;;;;;;;;;;5048939;28;20045;-65
2024/01/09 11:59:25;;;;;;;7.60;4.18;;;;;;;;;;5049396;28;20040;-67
2024/01/09 12:02:29;;;;;;;6.68;4.22;;;;;;;;;;5096737;27;20037;-67
2024/01/09 12:05:34;;;;;;;11.15;4.70;;;;;;;;;;5048987;28;20041;-68
2024/01/09 12:08:39;;;;;;;6.43;4.50;;;;;;;;;;5049070;28;20058;-68
2024/01/09 12:11:43;;;;;;;12.38;4.57;;;;;;;;;;5048521;28;20041;-69
2024/01/09 12:14:54;;;;;;;6.45;4.05;;;14.20;87.80;;;;;;5048834;28;20048;-70
2024/01/09 12:18:01;;;;;;;10.20;4.80;;;;;;;;;;5048001;28;20052;-69
2024/01/09 12:21:05;;;;;;;9.32;5.03;;;;;;;;;;5047905;28;20044;-69
2024/01/09 12:24:09;;;;;;;9.88;4.75;;;;;;;;;;5048787;28;20033;-68
2024/01/09 12:27:14;;;;;;;11.10;5.13;;;;;;;;;;5048824;28;20033;-71
2024/01/09 12:30:18;;;;;;;8.68;4.50;;;;;;;;;;5048632;28;20048;-69
2024/01/09 12:33:23;;;;;;;9.18;4.82;;;;;;;;;;5048622;28;20041;-72
2024/01/09 12:36:28;;;;;;;8.38;4.55;;;;;;;;;;5096133;27;20040;-67
2024/01/09 12:39:35;;;;;;;11.13;4.57;;;14.00;88.00;;;;;;5096464;27;20037;-69
2024/01/09 12:42:40;;;;;;;8.40;5.03;;;;;;;;;;5095921;27;20059;-68
2024/01/09 12:45:44;;;;;;;8.35;5.13;;;;;;;;;;5048339;28;20369;-68
2024/01/09 12:48:50;;;;;;;9.68;4.78;;;14.30;89.20;;;;;;5048518;28;20516;-68
2024/01/09 12:51:57;;;;;;;6.38;4.40;;;13.90;88.60;;;;;;5048259;28;20052;-69
2024/01/09 12:55:06;;;;;;;7.57;5.15;;;;;;;;;;5048650;28;20040;-68
2024/01/09 12:58:11;;;;;;;8.98;5.30;;;;;;;;;;5048370;28;20381;-69
2024/01/09 13:01:16;;;;;;;8.35;4.25;;;14.10;88.80;;;;;;5048185;28;20036;-69
2024/01/09 13:04:20;;;;;;;8.77;4.55;;;;;;;;;;5095922;27;20048;-68
2024/01/09 13:07:24;;;;;;;7.38;4.63;;;;;;;;;;5048193;28;20045;-69
2024/01/09 13:10:29;;;;;;;8.98;4.55;;;;;;;;;;5048120;28;20028;-69
2024/01/09 13:13:37;;;;;;;12.48;4.90;;;14.00;89.30;;;;;;5048144;28;20049;-68
2024/01/09 13:16:42;;;;;;;7.43;4.07;;;;;;;;;;5047945;28;20423;-69
2024/01/09 13:19:47;;;;;;;9.98;4.78;;;;;;;;;;5047846;28;20052;-69
2024/01/09 13:22:52;;;;;;;7.10;4.50;;;;;;;;;;5095627;27;20041;-68
2024/01/09 13:25:58;;;;;;;8.30;4.60;;;;;;;;;;5047212;28;20041;-69
2024/01/09 13:29:03;;;;;;;10.20;5.00;;;;;;;;;;5047979;28;20040;-68
2024/01/09 13:32:07;;;;;;;8.85;4.57;;;;;;;;;;5095383;28;20060;-68
2024/01/09 13:35:11;;;;;;;8.88;4.40;;;;;;;;;;5047676;28;20037;-67
2024/01/09 13:38:17;;;;;;;7.38;4.97;;;;;;;;;;5047874;28;20045;-68
2024/01/09 13:41:21;;;;;;;10.23;4.95;;;;;;;;;;5047756;28;20045;-69
2024/01/09 13:44:26;;;;;;;8.57;4.63;;;;;;;;;;5047979;28;20052;-67
2024/01/09 13:47:30;;;;;;;6.90;3.78;;;;;;;;;;5047896;28;20052;-66
2024/01/09 13:50:34;;;;;;;8.93;4.40;;;;;;;;;;5047909;28;20033;-67
2024/01/09 13:53:39;;;;;;;8.73;4.40;;;;;;;;;;5047764;28;20045;-66
2024/01/09 13:56:43;;;;;;;10.20;4.47;;;;;;;;;;5047572;28;20037;-66
2024/01/09 13:59:48;;;;;;;8.10;4.35;;;;;;;;;;5047482;28;20052;-67
2024/01/09 14:02:53;;;;;;;8.07;4.60;;;;;;;;;;5095451;28;20365;-66
2024/01/09 14:05:58;;;;;;;9.60;4.53;;;;;;;;;;5047458;28;20044;-66
2024/01/09 14:09:02;;;;;;;10.95;5.00;;;;;;;;;;5047349;28;20033;-65
2024/01/09 14:12:07;;;;;;;8.20;4.72;;;;;;;;;;5094648;28;20060;-66
2024/01/09 14:15:11;;;;;;;9.70;4.30;;;;;;;;;;5047296;28;20037;-65
2024/01/09 14:18:15;;;;;;;7.65;4.45;;;;;;;;;;5047005;28;20124;-68
2024/01/09 14:21:19;;;;;;;9.38;3.92;;;;;;;;;;5047148;28;20040;-67
2024/01/09 14:24:24;;;;;;;4.15;3.33;;;;;;;;;;5047469;28;20029;-67
2024/01/09 14:27:28;;;;;;;6.35;4.30;;;;;;;;;;5094456;28;20145;-66
2024/01/09 14:30:33;;;;;;;5.72;4.50;;;;;;;;;;5046792;28;20485;-67
2024/01/09 14:33:37;;;;;;;6.05;4.00;;;;;;;;;;5047391;28;20041;-71
2024/01/09 14:36:42;;;;;;;10.95;4.45;;;;;;;;;;5048456;28;20033;-68
2024/01/09 14:39:46;;;;;;;10.43;5.20;;;;;;;;;;5050408;28;20044;-68
2024/01/09 14:42:51;;;;;;;9.90;4.88;;;;;;;;;;5050277;28;20036;-68
2024/01/09 14:45:55;;;;;;;8.15;5.10;;;;;;;;;;5050560;28;20041;-72
2024/01/09 14:49:00;;;;;;;11.88;5.32;;;;;;;;;;5050547;28;20041;-70
2024/01/09 14:52:04;;;;;;;13.50;5.28;;;;;;;;;;5049997;28;20063;-70
2024/01/09 14:55:09;;;;;;;11.85;4.78;;;;;;;;;;5050476;28;20048;-71
2024/01/09 14:58:13;;;;;;;12.38;5.35;;;;;;;;;;5050222;28;20055;-72
2024/01/09 15:01:18;;;;;;;12.65;5.10;;;;;;;;;;5098594;27;20388;-70
2024/01/09 15:04:22;;;;;;;9.00;5.20;;;;;;;;;;5050475;28;20519;-69
2024/01/09 15:07:26;;;;;;;14.57;5.90;;;;;;;;;;5050269;28;20033;-69
2024/01/09 15:10:31;;;;;;;13.90;5.93;;;;;;;;;;5050275;28;20044;-74
2024/01/09 15:13:35;;;;;;;13.25;6.63;;;;;;;;;;5049946;28;20515;-70
2024/01/09 15:16:40;;;;;;;10.23;5.53;;;;;;;;;;5050269;28;20044;-70
2024/01/09 15:19:44;;;;;;;12.32;5.00;;;;;;;;;;5050141;28;20056;-72
2024/01/09 15:22:49;;;;;;;7.78;4.90;;;;;;;;;;5049909;28;20048;-69
2024/01/09 15:25:53;;;;;;;12.10;5.43;;;;;;;;;;5049866;28;20049;-69
2024/01/09 15:28:58;;;;;;;10.10;5.78;;;;;;;;;;5049944;28;20044;-70
2024/01/09 15:32:02;;;;;;;11.23;5.57;;;;;;;;;;5049386;28;20056;-70
2024/01/09 15:35:06;;;;;;;7.53;4.30;;;;;;;;;;5049572;28;20048;-69
2024/01/09 15:38:11;;;;;;;7.75;4.10;;;;;;;;;;5049585;28;20049;-71
2024/01/09 15:41:15;;;;;;;6.45;3.85;;;;;;;;;;5049715;28;20362;-72
2024/01/09 15:44:20;;;;;;;7.55;5.25;;;;;;;;;;5049432;28;20041;-69
2024/01/09 15:47:24;;;;;;;10.45;4.25;;;10.90;92.20;;;;;;5049397;28;20033;-69
2024/01/09 15:50:28;;;;;;;8.48;4.30;;;11.90;91.80;;;;;;5049519;28;20051;-67
2024/01/09 15:53:33;;;;;;;10.65;5.30;;;11.50;92.90;;;;;;5049095;28;20052;-68
2024/01/09 15:56:37;;;;;;;7.07;4.43;;;11.50;92.90;;;;;;5048859;28;20040;-70
2024/01/09 15:59:41;;;;;;;7.38;4.78;;;11.60;92.70;;;;;;5096858;27;20048;-68
2024/01/09 16:02:51;;;;;;;8.85;4.60;;;11.90;92.30;;;;;;5048633;28;20040;-69
2024/01/09 16:05:55;;;;;;;14.02;4.85;;;11.50;92.60;;;;;;5048964;28;20048;-68
2024/01/09 16:08:59;;;;;;;9.50;5.50;;;;;;;;;;5048890;28;20504;-68
2024/01/09 16:12:04;;;;;;;9.15;4.55;;;11.60;92.70;;;;;;5048954;28;20052;-68
2024/01/09 16:15:09;;;;;;;9.85;4.72;;;11.30;92.70;;;;;;5049015;28;20051;-67
2024/01/09 16:18:14;;;;;;;8.10;5.03;;;11.20;93.10;;;;;;5048613;28;20064;-68
2024/01/09 16:21:18;;;;;;;8.52;5.90;;;13.70;93.80;;;;;;5048698;28;20369;-68
2024/01/09 16:24:22;;;;;;;9.00;5.15;;;11.10;93.30;;;;;;5048696;28;20052;-68
2024/01/09 16:27:25;;;;;;;11.18;5.38;;;11.20;93.00;;;;;;5048813;28;20048;-68
2024/01/09 16:30:30;;;;;;;8.70;5.82;;;10.80;93.40;;;;;;5096615;27;20064;-68
2024/01/09 16:33:36;;;;;;;6.78;4.50;;;11.50;92.60;;;;;;5048230;28;20052;-68
2024/01/09 16:36:40;;;;;;;7.88;5.07;;;11.00;93.10;;;;;;5048666;28;20064;-68
2024/01/09 16:39:44;;;;;;;6.07;4.35;;;11.00;93.30;;;;;;5048636;28;20047;-68
2024/01/09 16:42:48;;;;;;;8.77;5.18;;;10.80;93.30;;;;;;5048410;28;20048;-68
2024/01/09 16:45:52;;;;;;;13.85;5.30;;;11.00;93.20;;;;;;5048654;28;20052;-68